Helena, MT

9:25 PM MDT on October 24, 2014 (GMT -0600)
Helena 2-North | Change Station
CLOSE
Current Station
Personal Weather Station
Location: Helena, MT
Elevation: 3825 ft
Nearby Weather Stations

Elev 3825 ft 46.62 °N, 112.04 °W | Updated 13 minutes ago

Overcast
Overcast
48.2 °F
Feels Like 48 °F
N
1.0
Wind Variable Wind from NNW
Gusts 3.0 mph

Today
High -- | Low -- °F
--% Chance of Precip.
Yesterday
High -- | Low -- °F
Precip. -- in
7:58 AM 6:25 PM
New Moon, 2% visible
Pressure 30.12 in
Visibility 10.0 miles
Clouds Overcast 8000 ft
Windchill 48 °F
Dew Point 42 °F
Humidity 80%
Rainfall 0.00 in
Snow Depth Not available.
UV 0 out of 12
Pollen 1.30 out of 12
Air Quality Not available.
Flu Activity No Activity
METAR KHLN 250253Z 25003KT 10SM OVC080 10/06 A3008 RMK AO2 SLP199 60000 T01000056 50000

More Conditions Fewer Conditions

Pressure 30.12 in
Visibility 10.0 miles
Clouds Overcast 8000 ft
Windchill 48 °F
Dew Point 42 °F
Humidity 80%
Rainfall 0.00 in
Snow Depth Not available.
UV 0 out of 12
Pollen 1.30 out of 12
Air Quality Not available.
Flu Activity No Activity
METAR KHLN 250253Z 25003KT 10SM OVC080 10/06 A3008 RMK AO2 SLP199 60000 T01000056 50000

More Conditions Fewer Conditions

10-Day Weather Forecast

Almanac

Astronomy

Oct. 24, 2014 Rise Set
Actual Time 7:58 AM MDT 6:25 PM MDT
Civil Twilight 7:27 AM MDT 6:56 PM MDT
Nautical Twilight 6:52 AM MDT 7:31 PM MDT
Astronomical Twilight 6:17 AM MDT 8:06 PM MDT
Moon 8:43 AM MDT (10/24) 7:04 PM MDT (10/24)
Length of Visible Light 11h 28m
Length of Day
10h 26m
Tomorrow will be 3m 6s shorter.
New Moon, 2% of the Moon is Illuminated
Today
New Moon
Oct 30
First Quarter
Nov 6
Full
Nov 14
Last Quarter
Nov 22
New

Today's Extremes

State Highs State Lows

Community

WunderPhotos

Upload Photos

1,764,769 photos uploaded!

Nearby

Snow Depth

Station Depth Elevation
Nevada Ridge 0 in 7020 ft
Boulder Mountain 0 in 7950 ft
Pickfoot Creek 0 in 6650 ft
Copper Bottom 0 in 5200 ft
Brackett Creek 1 in 7320 ft

Earthquake Activity

City Distance Mag. Time & Date
No recent earthquake activity has been reported nearby.
Minimum magnitude displayed is 2.5.

Coastal Water Temperatures

Place Temperature
No Stations Reporting

Nearby Weather Stations